Hovedside
METAR-TAF:

METAR-TAF

Lufthavner :

Stockholm, Sverige

Bromma lufthavn

breddegrad: 59-21N, lengdegrad: 017-57E, høyde over havet: 14 m

Gjeldene værobservasjon

Denne rapporten ble laget for 27 minutter siden, klokken 19:50 UTC
Vind 6 kt fra Sørvest, skiftende mellom Sør-sørvest og Vest
Temperatur 20°C
Luftfuktighet 60%
Trykk 1005 hPa
Sikt 10 km eller mer
ingen skyer under 1500 m og ingen bygeskyer

METAR: ESSB 281950Z 23006KT 200V260 CAVOK 20/12 Q1005

Tid: 22:17 (20:17 UTC)

Varsel

Denne rapporten ble laget for 2 timer og 47 minutter siden, klokken 17:30 UTC
Varsel gyldig fra 28. klokken 18 UTC til 28. klokken 20 UTC
Vind 12 kt fra Vest
Sikt 10 km eller mer
ingen skyer under 1500 m og ingen bygeskyer

TAF: ESSB 281730Z 2818/2820 26012KT CAVOK

Værobservasjoner og værvarsel for over 4000 flyplasser (METAR- og TAF-rapporter).

Tilgjengelige stasjoner er representert av de røde og gule prikkene på kartet.

Hold musepekeren over prikken for å se navnet på stasjonen.

Klikk så for å se værobservasjoner og -varsler.

For å forandre kartet kan du klikke på den grønne knappen med svart kryss for å zoome inn, på den grønne knappen med strek for å zoome ut, eller på de grønne pilene for å se tilstøtende kart.


METAR-TAF: